Time;durP1;ratioP1;P1;durP2;ratioP2;P2;SDS_P1;SDS_P2;PMS_P1;PMS_P2;Temp;Humidity;BMP_temperature;BMP_pressure;BME280_temperature;BME280_humidity;BME280_pressure;Samples;Min_cycle;Max_cycle;Signal;HPM_P1;HPM_P2
2021/10/19 00:01:55;;;;;;;10.00;6.10;;;22.90;55.20;;;;;;5219556;28;20044;-82
2021/10/19 00:04:27;;;;;;;8.77;6.30;;;22.80;55.10;;;;;;5221490;28;20067;-81
2021/10/19 00:07:00;;;;;;;10.32;6.55;;;22.80;55.10;;;;;;5223103;28;20055;-81
2021/10/19 00:09:32;;;;;;;7.03;6.00;;;22.90;55.10;;;;;;5228162;28;20383;-81
2021/10/19 00:12:05;;;;;;;8.68;6.28;;;22.80;55.00;;;;;;5225986;28;20597;-81
2021/10/19 00:14:38;;;;;;;10.02;6.20;;;22.80;55.00;;;;;;5218412;28;20053;-81
2021/10/19 00:17:10;;;;;;;8.23;6.73;;;22.80;55.00;;;;;;5225360;28;20048;-81
2021/10/19 00:19:43;;;;;;;9.25;6.90;;;22.90;55.00;;;;;;5223350;28;20044;-81
2021/10/19 00:22:16;;;;;;;10.40;6.05;;;22.80;55.00;;;;;;5225437;28;20048;-80
2021/10/19 00:24:48;;;;;;;7.43;5.82;;;22.80;55.00;;;;;;5206747;28;20052;-82
2021/10/19 00:27:20;;;;;;;8.27;6.30;;;22.80;55.00;;;;;;5224781;28;20048;-81
2021/10/19 00:29:53;;;;;;;8.40;5.90;;;22.80;54.90;;;;;;5225452;28;20045;-81
2021/10/19 00:32:25;;;;;;;9.88;5.97;;;22.80;55.00;;;;;;5225365;28;20190;-82
2021/10/19 00:34:58;;;;;;;7.53;5.78;;;22.80;54.90;;;;;;5205946;28;20401;-81
2021/10/19 00:37:30;;;;;;;8.55;5.90;;;22.80;55.00;;;;;;5211891;28;20040;-82
2021/10/19 00:40:04;;;;;;;10.57;5.50;;;22.80;54.90;;;;;;5206229;28;20505;-82
2021/10/19 00:42:37;;;;;;;7.07;5.28;;;22.80;54.90;;;;;;5224597;28;20048;-81
2021/10/19 00:45:10;;;;;;;7.15;5.72;;;22.80;55.60;;;;;;5225147;28;20052;-82
2021/10/19 00:47:51;;;;;;;6.68;5.32;;;22.80;54.90;;;;;;5225023;28;20553;-82
2021/10/19 00:50:24;;;;;;;9.32;5.75;;;22.80;54.90;;;;;;5225356;28;20052;-81
2021/10/19 00:52:57;;;;;;;12.02;5.88;;;22.80;54.90;;;;;;5223689;28;20495;-81
2021/10/19 00:55:31;;;;;;;;;;;22.80;54.90;;;;;;5227750;28;20409;-82
2021/10/19 00:58:05;;;;;;;6.85;5.35;;;22.80;54.90;;;;;;5210392;28;19920;-82
2021/10/19 01:00:38;;;;;;;12.23;5.50;;;22.80;54.90;;;;;;5207074;28;20052;-81
2021/10/19 01:03:11;;;;;;;6.50;5.55;;;22.80;54.90;;;;;;5213774;28;20545;-82
2021/10/19 01:05:43;;;;;;;8.07;5.53;;;22.80;54.90;;;;;;5226241;28;20515;-82
2021/10/19 01:08:16;;;;;;;6.97;5.22;;;22.80;55.40;;;;;;5232584;28;20063;-81
2021/10/19 01:10:49;;;;;;;10.60;5.35;;;22.80;54.80;;;;;;5211065;28;20045;-80
2021/10/19 01:13:22;;;;;;;7.35;5.13;;;22.80;54.80;;;;;;5212521;28;20028;-82
2021/10/19 01:16:05;;;;;;;12.63;5.38;;;22.80;54.80;;;;;;5227778;28;20420;-81
2021/10/19 01:18:39;;;;;;;8.37;5.10;;;22.80;54.80;;;;;;5228667;28;20598;-81
2021/10/19 01:21:12;;;;;;;6.95;5.30;;;22.80;54.80;;;;;;5228775;28;20044;-81
2021/10/19 01:23:46;;;;;;;7.22;5.03;;;22.80;54.80;;;;;;5217347;28;20438;-82
2021/10/19 01:26:18;;;;;;;8.77;5.57;;;22.80;54.80;;;;;;5230358;28;20045;-81
2021/10/19 01:28:51;;;;;;;6.30;4.68;;;22.80;54.70;;;;;;5228213;28;20041;-81
2021/10/19 01:31:23;;;;;;;6.60;4.53;;;22.80;54.70;;;;;;5227384;28;20064;-81
2021/10/19 01:33:56;;;;;;;6.73;5.00;;;22.80;54.60;;;;;;5228824;28;20216;-80
2021/10/19 01:36:28;;;;;;;7.63;5.03;;;22.80;54.60;;;;;;5216739;28;20049;-81
2021/10/19 01:39:01;;;;;;;5.35;4.68;;;22.80;54.70;;;;;;5228128;28;20045;-82
2021/10/19 01:41:33;;;;;;;5.35;4.45;;;22.80;54.60;;;;;;5228071;28;20459;-81
2021/10/19 01:44:06;;;;;;;5.35;4.25;;;22.80;54.60;;;;;;5231047;28;20516;-80
2021/10/19 01:46:38;;;;;;;7.05;4.15;;;22.80;54.60;;;;;;5229840;28;20091;-81
2021/10/19 01:49:11;;;;;;;9.00;4.30;;;22.80;54.60;;;;;;5229903;28;20052;-81
2021/10/19 01:51:43;;;;;;;11.65;4.55;;;22.80;54.60;;;;;;5211674;28;20470;-82
2021/10/19 01:54:16;;;;;;;7.20;4.45;;;22.80;55.30;;;;;;5226870;28;20044;-81
2021/10/19 01:56:48;;;;;;;6.20;4.50;;;22.80;54.60;;;;;;5209324;28;20580;-81
2021/10/19 01:59:21;;;;;;;6.80;4.15;;;22.80;54.60;;;;;;5227436;28;20055;-81
2021/10/19 02:01:54;;;;;;;;;;;22.80;54.60;;;;;;5210340;28;20052;-82
2021/10/19 02:04:27;;;;;;;6.38;4.07;;;22.80;54.60;;;;;;5224639;28;19920;-82
2021/10/19 02:06:59;;;;;;;6.60;4.18;;;22.80;54.60;;;;;;5226676;28;20049;-82
2021/10/19 02:09:32;;;;;;;5.10;4.00;;;22.80;54.60;;;;;;5226393;28;20397;-81
2021/10/19 02:12:05;;;;;;;4.68;4.22;;;22.80;54.60;;;;;;5221439;28;20045;-81
2021/10/19 02:14:37;;;;;;;5.18;4.30;;;22.80;54.50;;;;;;5208917;28;20056;-81
2021/10/19 02:17:10;;;;;;;6.28;3.90;;;22.80;54.60;;;;;;5226699;28;20040;-81
2021/10/19 02:19:42;;;;;;;7.13;4.00;;;22.80;54.60;;;;;;5227863;28;20056;-82
2021/10/19 02:22:15;;;;;;;6.35;3.80;;;22.80;54.50;;;;;;5229385;28;20048;-81
2021/10/19 02:24:47;;;;;;;5.70;3.78;;;22.80;54.40;;;;;;5229164;28;20501;-81
2021/10/19 02:27:20;;;;;;;6.70;3.30;;;22.80;54.40;;;;;;5225792;28;20048;-81
2021/10/19 02:29:52;;;;;;;4.45;3.63;;;22.80;55.00;;;;;;5225363;28;20053;-81
2021/10/19 02:32:25;;;;;;;7.07;4.18;;;22.80;54.40;;;;;;5230491;28;20045;-81
2021/10/19 02:34:57;;;;;;;4.38;3.58;;;22.80;54.30;;;;;;5214537;28;20053;-83
2021/10/19 02:37:30;;;;;;;5.35;3.75;;;22.80;54.30;;;;;;5223734;28;20402;-82
2021/10/19 02:40:03;;;;;;;6.00;3.75;;;22.80;54.20;;;;;;5228186;28;20067;-82
2021/10/19 02:42:36;;;;;;;5.22;3.78;;;22.80;54.20;;;;;;5225556;28;20051;-82
2021/10/19 02:45:09;;;;;;;4.60;3.43;;;22.80;54.20;;;;;;5228517;28;20040;-82
2021/10/19 02:47:42;;;;;;;4.68;3.35;;;22.80;54.10;;;;;;5226454;28;20053;-83
2021/10/19 02:50:15;;;;;;;5.33;3.67;;;22.80;54.10;;;;;;5229111;28;20478;-82
2021/10/19 02:52:47;;;;;;;3.45;3.15;;;22.80;54.10;;;;;;5212682;28;20048;-81
2021/10/19 02:55:20;;;;;;;6.53;2.85;;;22.80;54.10;;;;;;5213809;28;20115;-81
2021/10/19 02:57:52;;;;;;;4.18;3.38;;;22.80;54.10;;;;;;5225695;28;20394;-81
2021/10/19 03:00:25;;;;;;;4.00;3.05;;;22.80;54.20;;;;;;5210381;28;20045;-81
2021/10/19 03:02:57;;;;;;;5.10;3.50;;;22.80;54.00;;;;;;5226145;28;20044;-82
2021/10/19 03:05:30;;;;;;;5.20;3.40;;;22.80;54.00;;;;;;5226925;28;20094;-82
2021/10/19 03:08:03;;;;;;;4.80;3.35;;;22.80;54.00;;;;;;5224832;28;20071;-81
2021/10/19 03:10:35;;;;;;;4.25;3.38;;;22.80;54.10;;;;;;5208096;28;20075;-82
2021/10/19 03:13:08;;;;;;;3.83;3.03;;;22.80;54.10;;;;;;5227299;28;20512;-82
2021/10/19 03:15:41;;;;;;;7.10;3.28;;;22.80;54.00;;;;;;5226483;28;20784;-82
2021/10/19 03:18:13;;;;;;;5.78;3.15;;;22.80;53.90;;;;;;5207223;28;20048;-81
2021/10/19 03:20:46;;;;;;;3.63;3.22;;;22.80;54.00;;;;;;5209390;28;20056;-82
2021/10/19 03:23:18;;;;;;;5.78;3.28;;;22.80;54.00;;;;;;5225870;28;20413;-82
2021/10/19 03:25:51;;;;;;;4.65;3.50;;;22.80;53.90;;;;;;5222995;28;20040;-81
2021/10/19 03:28:23;;;;;;;4.00;3.35;;;22.80;53.90;;;;;;5224377;28;20045;-82
2021/10/19 03:30:56;;;;;;;4.63;3.03;;;22.80;53.90;;;;;;5224948;28;20303;-81
2021/10/19 03:33:29;;;;;;;3.97;3.20;;;22.80;53.80;;;;;;5207954;28;20052;-81
2021/10/19 03:36:04;;;;;;;;;;;22.80;53.90;;;;;;5228524;28;20040;-81
2021/10/19 03:38:37;;;;;;;3.97;2.90;;;22.70;53.90;;;;;;5225061;28;19955;-83
2021/10/19 03:41:11;;;;;;;4.50;2.97;;;22.80;54.00;;;;;;5209615;28;20052;-82
2021/10/19 03:43:43;;;;;;;4.97;3.00;;;22.80;53.90;;;;;;5225056;28;20048;-82
2021/10/19 03:46:16;;;;;;;3.78;2.67;;;22.80;53.90;;;;;;5228336;28;20041;-82
2021/10/19 03:48:48;;;;;;;3.20;2.83;;;22.80;53.90;;;;;;5227870;28;20043;-82
2021/10/19 03:51:21;;;;;;;4.80;3.15;;;22.80;53.90;;;;;;5226869;28;20064;-83
2021/10/19 03:53:53;;;;;;;3.58;2.78;;;22.80;53.90;;;;;;5224829;28;20052;-82
2021/10/19 03:56:26;;;;;;;4.05;2.78;;;22.80;53.80;;;;;;5228795;28;20047;-82
2021/10/19 03:58:58;;;;;;;2.78;2.55;;;22.80;53.90;;;;;;5220933;28;20052;-83
2021/10/19 04:01:31;;;;;;;3.00;2.70;;;22.80;53.90;;;;;;5224741;28;20044;-82
2021/10/19 04:04:03;;;;;;;4.17;2.97;;;22.80;53.90;;;;;;5227175;28;20051;-82
2021/10/19 04:06:37;;;;;;;5.30;2.78;;;22.80;53.80;;;;;;5216721;28;20047;-82
2021/10/19 04:09:09;;;;;;;3.88;2.70;;;22.80;53.80;;;;;;5215716;28;20051;-82
2021/10/19 04:11:42;;;;;;;3.47;2.85;;;22.80;53.80;;;;;;5208100;28;20048;-81
2021/10/19 04:14:14;;;;;;;3.35;2.40;;;22.80;53.80;;;;;;5219269;28;20056;-82
2021/10/19 04:16:47;;;;;;;4.43;2.65;;;22.80;53.80;;;;;;5220517;28;20509;-82
2021/10/19 04:19:19;;;;;;;3.53;2.70;;;22.80;53.80;;;;;;5217309;28;20053;-82
2021/10/19 04:21:52;;;;;;;5.07;3.05;;;22.80;53.80;;;;;;5223758;28;20269;-83
2021/10/19 04:24:25;;;;;;;5.30;2.70;;;22.80;53.80;;;;;;5220671;28;20413;-81
2021/10/19 04:26:57;;;;;;;3.53;3.00;;;22.80;53.90;;;;;;5204240;28;20044;-82
2021/10/19 04:29:30;;;;;;;3.70;2.53;;;22.80;54.00;;;;;;5220050;28;20047;-82
2021/10/19 04:32:02;;;;;;;5.47;2.95;;;22.80;54.30;;;;;;5209388;28;20048;-82
2021/10/19 04:34:35;;;;;;;5.18;2.70;;;22.80;54.50;;;;;;5203660;28;20044;-82
2021/10/19 04:37:08;;;;;;;4.35;2.85;;;22.80;54.40;;;;;;5187828;28;20041;-83
2021/10/19 04:39:40;;;;;;;6.28;2.67;;;22.80;54.50;;;;;;5203700;28;20488;-82
2021/10/19 04:42:13;;;;;;;4.90;3.00;;;22.80;54.50;;;;;;5211556;28;20411;-82
2021/10/19 04:44:48;;;;;;;5.20;2.72;;;22.90;54.60;;;;;;5197423;28;20513;-82
2021/10/19 04:47:22;;;;;;;4.35;2.80;;;22.80;55.30;;;;;;5216423;28;20053;-81
2021/10/19 04:49:58;;;;;;;5.68;2.50;;;22.90;54.70;;;;;;5216616;28;20115;-82
2021/10/19 04:52:31;;;;;;;5.78;2.60;;;22.90;54.70;;;;;;5186801;28;20055;-82
2021/10/19 04:55:04;;;;;;;10.90;4.53;;;22.90;54.70;;;;;;5210914;28;20040;-83
2021/10/19 04:57:38;;;;;;;11.57;3.80;;;22.90;54.80;;;;;;5210760;28;20556;-80
2021/10/19 05:00:12;;;;;;;7.00;3.08;;;23.00;55.10;;;;;;5207126;28;20421;-81
2021/10/19 05:02:49;;;;;;;13.40;3.35;;;23.00;55.20;;;;;;5215407;28;20056;-80
2021/10/19 05:05:22;;;;;;;13.13;4.25;;;23.00;55.30;;;;;;5205649;28;20486;-81
2021/10/19 05:07:54;;;;;;;15.30;3.83;;;23.00;55.40;;;;;;5196127;28;20048;-82
2021/10/19 05:10:27;;;;;;;21.60;3.70;;;23.00;55.60;;;;;;5208740;28;20060;-81
2021/10/19 05:12:59;;;;;;;22.33;3.63;;;23.00;55.50;;;;;;5204322;28;20044;-81
2021/10/19 05:15:32;;;;;;;15.65;4.47;;;23.00;55.50;;;;;;5208247;28;20044;-82
2021/10/19 05:18:10;;;;;;;14.07;3.67;;;23.00;55.50;;;;;;5204626;28;20055;-81
2021/10/19 05:20:42;;;;;;;8.47;3.73;;;23.10;55.50;;;;;;5218039;28;20713;-81
2021/10/19 05:23:17;;;;;;;22.58;3.42;;;23.10;55.40;;;;;;5218598;28;20049;-81
2021/10/19 05:25:49;;;;;;;9.95;3.47;;;23.10;55.40;;;;;;5201432;28;20045;-82
2021/10/19 05:28:22;;;;;;;16.80;3.65;;;23.10;55.50;;;;;;5197238;28;20059;-80
2021/10/19 05:30:56;;;;;;;13.18;3.13;;;23.10;55.50;;;;;;5202653;28;20045;-80
2021/10/19 05:33:29;;;;;;;9.45;3.65;;;23.10;55.50;;;;;;5198592;28;20494;-81
2021/10/19 05:36:01;;;;;;;11.70;3.33;;;23.10;55.50;;;;;;5210840;28;20067;-83
2021/10/19 05:38:34;;;;;;;13.48;4.45;;;23.10;55.50;;;;;;5212072;28;20045;-81
2021/10/19 05:41:07;;;;;;;10.90;2.90;;;23.10;55.50;;;;;;5215234;28;20048;-80
2021/10/19 05:43:39;;;;;;;12.23;3.67;;;23.10;55.50;;;;;;5215645;28;20477;-80
2021/10/19 05:46:14;;;;;;;13.57;3.47;;;23.10;55.50;;;;;;5220042;28;20048;-81
2021/10/19 05:48:47;;;;;;;12.27;3.33;;;23.10;55.40;;;;;;5207173;28;20048;-82
2021/10/19 05:51:19;;;;;;;7.20;2.80;;;23.10;55.40;;;;;;5224743;28;20047;-82
2021/10/19 05:53:52;;;;;;;5.95;3.00;;;23.10;55.40;;;;;;5221050;28;20040;-82
2021/10/19 05:56:24;;;;;;;7.57;3.13;;;23.10;55.30;;;;;;5225151;28;20497;-81
2021/10/19 05:58:57;;;;;;;8.68;2.85;;;23.10;55.30;;;;;;5228701;28;20041;-82
2021/10/19 06:01:29;;;;;;;9.43;3.00;;;23.10;55.30;;;;;;5230573;28;20053;-83
2021/10/19 06:04:02;;;;;;;7.80;2.78;;;23.10;55.30;;;;;;5227066;28;20052;-82
2021/10/19 06:06:34;;;;;;;11.80;3.10;;;23.10;55.20;;;;;;5207641;28;20405;-81
2021/10/19 06:09:07;;;;;;;6.53;2.15;;;23.10;55.20;;;;;;5227661;28;20048;-82
2021/10/19 06:11:40;;;;;;;6.57;2.73;;;23.10;55.80;;;;;;5230721;28;20063;-82
2021/10/19 06:14:12;;;;;;;7.05;2.67;;;23.10;55.10;;;;;;5227674;28;20290;-83
2021/10/19 06:16:45;;;;;;;4.03;2.50;;;23.10;55.10;;;;;;5227502;28;20036;-82
2021/10/19 06:19:17;;;;;;;6.40;2.42;;;23.10;55.10;;;;;;5220014;28;20405;-82
2021/10/19 06:21:50;;;;;;;4.63;2.47;;;23.10;55.00;;;;;;5221398;28;20060;-82
2021/10/19 06:24:22;;;;;;;7.88;2.55;;;23.10;54.80;;;;;;5223131;28;20060;-82
2021/10/19 06:26:55;;;;;;;7.20;2.92;;;23.10;54.80;;;;;;5211700;28;20052;-82
2021/10/19 06:29:29;;;;;;;7.70;2.72;;;23.10;54.80;;;;;;5224259;28;20055;-82
2021/10/19 06:32:02;;;;;;;6.13;2.90;;;23.10;54.80;;;;;;5228320;28;20048;-82
2021/10/19 06:34:34;;;;;;;6.97;2.60;;;23.10;54.80;;;;;;5215353;28;20049;-82
2021/10/19 06:37:07;;;;;;;4.55;2.28;;;23.10;54.80;;;;;;5230323;28;20379;-81
2021/10/19 06:39:39;;;;;;;4.97;2.20;;;23.10;54.80;;;;;;5219666;28;20044;-83
2021/10/19 06:42:12;;;;;;;6.88;3.47;;;23.10;54.80;;;;;;5225681;28;20037;-81
2021/10/19 06:44:44;;;;;;;8.02;2.63;;;23.10;54.80;;;;;;5224682;28;20047;-81
2021/10/19 06:47:18;;;;;;;6.57;2.67;;;23.20;54.90;;;;;;5222311;28;20047;-82
2021/10/19 06:49:51;;;;;;;7.32;2.30;;;23.10;54.80;;;;;;5203934;28;20044;-82
2021/10/19 06:52:23;;;;;;;11.05;2.90;;;23.20;54.80;;;;;;5228341;28;20048;-83
2021/10/19 06:54:59;;;;;;;4.65;2.60;;;23.20;54.80;;;;;;5229363;28;20059;-83
2021/10/19 06:57:36;;;;;;;4.05;2.58;;;23.10;54.80;;;;;;5223669;28;20045;-82
2021/10/19 07:00:13;;;;;;;6.38;2.40;;;23.10;54.80;;;;;;5206700;28;21004;-82
2021/10/19 07:02:48;;;;;;;6.90;2.75;;;23.10;54.90;;;;;;5222870;28;20040;-81
2021/10/19 07:05:21;;;;;;;10.80;2.58;;;23.10;54.80;;;;;;5217113;28;20055;-81
2021/10/19 07:07:53;;;;;;;4.40;2.70;;;23.20;55.00;;;;;;5217823;28;20044;-81
2021/10/19 07:10:26;;;;;;;5.22;2.20;;;23.20;55.00;;;;;;5211268;28;20041;-82
2021/10/19 07:12:58;;;;;;;3.77;2.40;;;23.20;55.10;;;;;;5212395;28;20049;-82
2021/10/19 07:15:34;;;;;;;8.02;2.38;;;23.20;55.10;;;;;;5182264;28;20053;-82
2021/10/19 07:18:08;;;;;;;6.97;2.17;;;23.20;55.20;;;;;;5201782;28;20524;-83
2021/10/19 07:20:40;;;;;;;4.97;2.47;;;23.20;55.20;;;;;;5217041;28;20049;-82
2021/10/19 07:23:12;;;;;;;4.03;2.60;;;23.20;55.30;;;;;;5194647;28;20541;-82
2021/10/19 07:25:46;;;;;;;8.52;2.75;;;23.20;55.20;;;;;;5196535;28;20700;-81
2021/10/19 07:28:19;;;;;;;5.13;2.60;;;23.20;55.30;;;;;;5215851;28;20041;-82
2021/10/19 07:30:51;;;;;;;6.18;2.70;;;23.20;55.30;;;;;;5214108;28;20048;-82
2021/10/19 07:33:24;;;;;;;4.07;2.55;;;23.20;55.30;;;;;;5210988;28;20398;-81
2021/10/19 07:35:57;;;;;;;6.35;2.63;;;23.20;55.40;;;;;;5220595;28;20041;-82
2021/10/19 07:38:32;;;;;;;7.60;2.42;;;23.20;55.40;;;;;;5192139;28;20040;-81
2021/10/19 07:41:04;;;;;;;4.53;2.35;;;23.20;55.40;;;;;;5224187;28;20408;-82
2021/10/19 07:43:37;;;;;;;6.35;2.72;;;23.20;55.50;;;;;;5218854;28;20049;-82
2021/10/19 07:46:09;;;;;;;6.78;3.13;;;23.20;55.50;;;;;;5214600;28;20060;-82
2021/10/19 07:48:42;;;;;;;6.20;2.28;;;23.20;55.50;;;;;;5218602;28;20048;-82
2021/10/19 07:51:16;;;;;;;7.63;2.40;;;23.20;55.60;;;;;;5203097;28;20044;-81
2021/10/19 07:53:49;;;;;;;3.50;1.88;;;23.20;55.60;;;;;;5223999;28;20047;-81
2021/10/19 07:56:21;;;;;;;4.70;2.30;;;23.20;55.60;;;;;;5221889;28;20037;-82
2021/10/19 07:58:54;;;;;;;6.38;2.05;;;23.20;55.60;;;;;;5227705;28;20065;-81
2021/10/19 08:01:26;;;;;;;5.15;2.33;;;23.20;55.60;;;;;;5228885;28;20047;-82
2021/10/19 08:03:59;;;;;;;3.67;2.07;;;23.20;55.60;;;;;;5224684;28;20064;-82
2021/10/19 08:06:32;;;;;;;3.50;2.03;;;23.30;55.70;;;;;;5223609;28;20048;-82
2021/10/19 08:09:04;;;;;;;3.60;2.10;;;23.20;55.70;;;;;;5222693;28;20051;-81
2021/10/19 08:11:37;;;;;;;4.40;2.08;;;23.30;55.70;;;;;;5223370;28;20045;-82
2021/10/19 08:14:09;;;;;;;5.35;2.08;;;23.20;55.70;;;;;;5220282;28;20055;-81
2021/10/19 08:16:48;;;;;;;4.07;2.13;;;23.20;55.80;;;;;;5221075;28;20053;-80
2021/10/19 08:19:21;;;;;;;6.78;2.25;;;23.20;55.80;;;;;;5225396;28;20040;-80
2021/10/19 08:21:53;;;;;;;7.93;2.23;;;23.20;55.80;;;;;;5207510;28;20060;-80
2021/10/19 08:24:26;;;;;;;5.65;2.40;;;23.20;55.90;;;;;;5223076;28;25844;-81
2021/10/19 08:26:58;;;;;;;11.33;2.40;;;23.20;55.90;;;;;;5221680;28;20528;-81
2021/10/19 08:29:31;;;;;;;5.53;2.70;;;23.20;55.90;;;;;;5214662;28;20124;-81
2021/10/19 08:32:04;;;;;;;3.80;1.98;;;23.20;55.90;;;;;;5217123;28;20434;-80
2021/10/19 08:34:36;;;;;;;3.13;2.15;;;23.30;55.90;;;;;;5219297;28;20051;-81
2021/10/19 08:37:09;;;;;;;5.22;2.33;;;23.30;56.60;;;;;;5217890;28;20235;-79
2021/10/19 08:39:42;;;;;;;2.23;2.00;;;23.30;56.00;;;;;;5212431;28;20052;-79
2021/10/19 08:42:15;;;;;;;3.83;1.97;;;23.20;55.90;;;;;;5220876;28;20984;-78
2021/10/19 08:44:47;;;;;;;4.68;2.00;;;23.20;55.90;;;;;;5222947;28;20301;-78
2021/10/19 08:47:20;;;;;;;5.50;2.17;;;23.20;56.00;;;;;;5219288;28;20417;-78
2021/10/19 08:49:52;;;;;;;3.67;2.07;;;23.20;56.00;;;;;;5213927;28;20095;-78
2021/10/19 08:52:25;;;;;;;4.82;2.20;;;23.20;56.00;;;;;;5216265;28;20048;-78
2021/10/19 08:54:58;;;;;;;5.03;2.80;;;23.20;56.00;;;;;;5206838;28;20059;-78
2021/10/19 09:12:24;;;;;;;3.42;2.10;;;23.20;56.20;;;;;;5223791;28;20405;-79
2021/10/19 09:15:04;;;;;;;4.32;2.40;;;23.10;56.20;;;;;;5219980;28;20044;-79
2021/10/19 09:17:38;;;;;;;5.40;2.38;;;23.10;56.20;;;;;;5219126;28;20060;-79
2021/10/19 09:20:14;;;;;;;3.80;2.30;;;23.20;56.90;;;;;;5202748;28;20053;-79
2021/10/19 09:22:58;;;;;;;4.70;2.40;;;23.20;56.30;;;;;;5218638;28;20126;-79
2021/10/19 09:25:33;;;;;;;2.65;1.77;;;23.20;56.30;;;;;;5220200;28;20055;-79
2021/10/19 09:28:11;;;;;;;4.00;2.17;;;23.20;56.30;;;;;;5221795;28;20497;-79
2021/10/19 09:30:47;;;;;;;3.10;2.13;;;23.20;56.30;;;;;;5227836;28;20521;-79
2021/10/19 09:33:21;;;;;;;4.85;2.22;;;23.20;56.30;;;;;;5208905;28;20448;-79
2021/10/19 09:35:55;;;;;;;3.95;2.30;;;23.20;56.40;;;;;;5226805;28;20063;-79
2021/10/19 09:38:28;;;;;;;5.65;2.08;;;23.20;56.40;;;;;;5221131;28;20045;-80
2021/10/19 09:41:02;;;;;;;5.90;2.13;;;23.20;56.40;;;;;;5209302;28;20040;-79
2021/10/19 09:43:34;;;;;;;4.32;2.15;;;23.20;56.40;;;;;;5220934;28;20465;-79
2021/10/19 09:46:08;;;;;;;3.75;1.80;;;23.20;56.40;;;;;;5224499;28;20085;-79
2021/10/19 09:48:44;;;;;;;3.22;1.85;;;23.20;56.40;;;;;;5205301;28;20045;-79
2021/10/19 09:51:17;;;;;;;3.33;1.90;;;23.20;56.50;;;;;;5220064;28;20044;-79
2021/10/19 09:53:52;;;;;;;4.07;2.22;;;23.20;56.50;;;;;;5223988;28;20044;-79
2021/10/19 09:56:25;;;;;;;3.75;2.17;;;23.20;56.50;;;;;;5213187;28;20052;-79
2021/10/19 09:58:58;;;;;;;3.03;2.22;;;23.20;56.50;;;;;;5226443;28;20055;-79
2021/10/19 10:01:34;;;;;;;4.33;1.80;;;23.20;56.60;;;;;;5230501;28;20048;-79
2021/10/19 10:04:08;;;;;;;3.67;1.77;;;23.20;56.60;;;;;;5225031;28;20063;-79
2021/10/19 10:06:41;;;;;;;3.45;2.38;;;23.20;56.60;;;;;;5199286;28;20060;-79
2021/10/19 10:09:14;;;;;;;3.03;2.03;;;23.20;56.70;;;;;;5211149;28;20089;-79
2021/10/19 10:11:46;;;;;;;3.13;1.80;;;23.20;56.70;;;;;;4157156;28;10000070;-80
2021/10/19 10:14:19;;;;;;;2.53;1.85;;;23.20;56.70;;;;;;5210587;28;20045;-79
2021/10/19 10:16:52;;;;;;;3.40;2.67;;;23.20;56.70;;;;;;5211498;28;20041;-79
2021/10/19 10:19:34;;;;;;;5.80;2.60;;;23.20;56.80;;;;;;5223513;28;20053;-79
2021/10/19 10:22:28;;;;;;;3.72;2.10;;;23.20;56.80;;;;;;5220408;28;20068;-79
2021/10/19 10:25:08;;;;;;;2.60;1.92;;;23.20;56.90;;;;;;5221656;28;20055;-79
2021/10/19 10:27:42;;;;;;;3.08;2.08;;;23.20;56.90;;;;;;5216894;28;20045;-79
2021/10/19 10:30:22;;;;;;;4.90;2.13;;;23.20;57.00;;;;;;5218382;28;20048;-79
2021/10/19 10:33:05;;;;;;;2.65;1.90;;;23.20;57.00;;;;;;5220333;28;20052;-79
2021/10/19 10:35:46;;;;;;;3.38;1.88;;;23.20;57.10;;;;;;5208603;28;20048;-80
2021/10/19 10:38:19;;;;;;;6.00;2.17;;;23.20;57.10;;;;;;5220230;28;20051;-79
2021/10/19 10:40:56;;;;;;;3.93;1.77;;;23.20;57.10;;;;;;5217991;28;20083;-79
2021/10/19 10:43:35;;;;;;;3.30;2.08;;;23.20;57.10;;;;;;5203154;28;20056;-80
2021/10/19 10:46:19;;;;;;;3.35;2.10;;;23.20;57.20;;;;;;5213193;28;20052;-79
2021/10/19 10:48:56;;;;;;;4.13;2.08;;;23.20;57.20;;;;;;5191862;28;20398;-79
2021/10/19 10:51:36;;;;;;;7.13;2.05;;;23.20;57.20;;;;;;5207150;28;20236;-79
2021/10/19 10:54:13;;;;;;;3.38;1.83;;;23.20;57.20;;;;;;5197698;28;20040;-79
2021/10/19 10:56:50;;;;;;;3.22;1.90;;;23.20;57.20;;;;;;5202105;28;21701;-79
2021/10/19 10:59:28;;;;;;;5.13;2.13;;;23.20;57.30;;;;;;5196362;28;20041;-79
2021/10/19 11:02:08;;;;;;;4.97;2.15;;;23.20;57.20;;;;;;5223199;28;20052;-79
2021/10/19 11:04:48;;;;;;;3.80;2.17;;;23.20;57.30;;;;;;5215086;28;20041;-79
2021/10/19 11:07:30;;;;;;;4.40;2.15;;;23.20;57.30;;;;;;5212050;28;20048;-80
2021/10/19 11:10:09;;;;;;;4.18;2.17;;;23.20;57.30;;;;;;5222298;28;20365;-79
2021/10/19 11:12:44;;;;;;;3.83;1.90;;;23.20;57.30;;;;;;5207889;28;20053;-79
2021/10/19 11:15:18;;;;;;;3.55;2.17;;;23.20;57.30;;;;;;5201461;28;20549;-79
2021/10/19 11:17:53;;;;;;;4.05;1.92;;;23.20;57.30;;;;;;5206458;28;20492;-79
2021/10/19 11:20:27;;;;;;;2.50;1.90;;;23.20;58.00;;;;;;5211813;28;20557;-79
2021/10/19 11:23:02;;;;;;;4.57;2.03;;;23.20;57.40;;;;;;5203831;28;20048;-79
2021/10/19 11:25:35;;;;;;;3.03;2.13;;;23.20;57.40;;;;;;5211217;28;20063;-79
2021/10/19 11:28:08;;;;;;;5.05;2.20;;;23.30;57.50;;;;;;5203521;28;20055;-79
2021/10/19 11:30:41;;;;;;;3.93;2.30;;;23.30;57.60;;;;;;5209088;28;20489;-79
2021/10/19 11:33:13;;;;;;;4.57;2.33;;;23.20;57.70;;;;;;5191505;28;20306;-79
2021/10/19 11:35:46;;;;;;;12.02;2.35;;;23.20;57.70;;;;;;5207808;28;20037;-79
2021/10/19 11:38:20;;;;;;;9.38;2.28;;;23.20;57.80;;;;;;5198208;28;20048;-79
2021/10/19 11:41:08;;;;;;;6.80;1.85;;;23.20;57.90;;;;;;5207485;28;20052;-79
2021/10/19 11:43:52;;;;;;;5.38;2.17;;;23.30;58.00;;;;;;5185500;28;21027;-80
2021/10/19 11:46:35;;;;;;;11.40;2.70;;;23.30;58.30;;;;;;5172851;28;20529;-82
2021/10/19 11:49:12;;;;;;;8.07;2.22;;;23.30;58.50;;;;;;5198416;28;20383;-82
2021/10/19 11:51:50;;;;;;;7.10;2.47;;;23.30;58.70;;;;;;5184178;28;20052;-83
2021/10/19 11:54:22;;;;;;;12.43;2.22;;;23.30;58.70;;;;;;5216198;28;20059;-82
2021/10/19 11:57:03;;;;;;;12.80;2.30;;;23.30;58.80;;;;;;5214327;28;20455;-82
2021/10/19 11:59:40;;;;;;;8.40;2.30;;;23.30;58.80;;;;;;5211613;28;20045;-82
2021/10/19 12:02:13;;;;;;;10.90;2.47;;;23.30;58.70;;;;;;5197929;28;20422;-82
2021/10/19 12:04:46;;;;;;;7.95;2.30;;;23.30;59.00;;;;;;5201647;28;20049;-82
2021/10/19 12:07:28;;;;;;;7.57;2.28;;;23.30;58.90;;;;;;5201301;28;20242;-85
2021/10/19 12:10:11;;;;;;;10.27;2.80;;;23.30;58.90;;;;;;5194812;28;20040;-83
2021/10/19 12:12:56;;;;;;;7.95;2.45;;;23.30;59.00;;;;;;5204183;28;20048;-82
2021/10/19 12:15:32;;;;;;;9.00;2.38;;;23.30;59.00;;;;;;5176378;28;20053;-79
2021/10/19 12:18:16;;;;;;;15.60;2.60;;;23.30;59.10;;;;;;5199493;28;20138;-79
2021/10/19 12:20:49;;;;;;;9.52;2.53;;;23.30;59.20;;;;;;5193420;28;20036;-79
2021/10/19 12:23:22;;;;;;;15.77;3.20;;;23.30;59.20;;;;;;5206926;28;20064;-79
2021/10/19 12:25:54;;;;;;;9.35;2.30;;;23.30;59.40;;;;;;5209445;28;20435;-79
2021/10/19 12:28:28;;;;;;;6.05;2.25;;;23.30;60.20;;;;;;5196546;28;20041;-79
2021/10/19 12:31:01;;;;;;;14.35;2.65;;;23.30;59.60;;;;;;5203272;28;20060;-78
2021/10/19 12:33:33;;;;;;;7.37;2.50;;;23.30;59.60;;;;;;5215968;28;20401;-79
2021/10/19 12:36:09;;;;;;;6.53;2.40;;;23.30;59.60;;;;;;5211204;28;20051;-79
2021/10/19 12:38:44;;;;;;;8.13;2.20;;;23.30;59.70;;;;;;5209610;28;20056;-79
2021/10/19 12:41:19;;;;;;;7.60;2.17;;;23.30;59.60;;;;;;5208881;28;20040;-79
2021/10/19 12:43:53;;;;;;;8.70;2.33;;;23.30;59.60;;;;;;5191355;28;20044;-79
2021/10/19 12:46:27;;;;;;;6.40;2.30;;;23.30;59.60;;;;;;5203830;28;20494;-79
2021/10/19 12:49:02;;;;;;;15.52;2.45;;;23.30;59.70;;;;;;5207621;28;20068;-78
2021/10/19 12:51:35;;;;;;;4.45;2.33;;;23.30;59.60;;;;;;5209279;28;20040;-79
2021/10/19 12:54:08;;;;;;;8.18;2.33;;;23.30;59.80;;;;;;5199914;28;20044;-79
2021/10/19 12:56:41;;;;;;;9.50;2.35;;;23.30;59.80;;;;;;5206006;28;20053;-79
2021/10/19 12:59:15;;;;;;;8.52;2.38;;;23.30;59.80;;;;;;5188950;28;20049;-79
2021/10/19 13:01:47;;;;;;;15.77;2.35;;;23.30;60.00;;;;;;5209340;28;20463;-79
2021/10/19 13:04:20;;;;;;;6.57;2.40;;;23.30;59.90;;;;;;5207700;28;20041;-79
2021/10/19 13:06:52;;;;;;;14.02;2.90;;;23.30;60.00;;;;;;5210126;28;20059;-79
2021/10/19 13:09:25;;;;;;;6.20;2.08;;;23.30;60.20;;;;;;4516833;28;10000351;-79
2021/10/19 13:11:58;;;;;;;6.23;2.47;;;23.30;60.30;;;;;;5209770;28;20052;-79
2021/10/19 13:14:31;;;;;;;10.55;2.50;;;23.30;60.30;;;;;;5210847;28;20037;-79
2021/10/19 13:17:03;;;;;;;15.05;2.33;;;23.30;60.30;;;;;;5184397;28;20300;-79
2021/10/19 13:19:36;;;;;;;11.38;2.92;;;23.30;60.40;;;;;;5207401;28;20127;-79
2021/10/19 13:22:08;;;;;;;5.53;2.45;;;23.30;60.50;;;;;;5192153;28;20052;-79
2021/10/19 13:24:42;;;;;;;9.60;2.20;;;23.30;60.80;;;;;;5212041;28;20041;-79
2021/10/19 13:27:15;;;;;;;8.93;2.53;;;23.30;60.80;;;;;;5211022;28;20056;-79
2021/10/19 13:29:47;;;;;;;6.00;1.90;;;23.30;60.60;;;;;;5214666;28;20465;-79
2021/10/19 13:32:20;;;;;;;13.52;2.60;;;23.20;60.50;;;;;;5210383;28;20048;-79
2021/10/19 13:34:52;;;;;;;13.45;2.38;;;23.30;60.50;;;;;;5216138;28;20043;-79